Time;durP1;ratioP1;P1;durP2;ratioP2;P2;SDS_P1;SDS_P2;PMS_P1;PMS_P2;Temp;Humidity;BMP_temperature;BMP_pressure;BME280_temperature;BME280_humidity;BME280_pressure;Samples;Min_cycle;Max_cycle;Signal;HPM_P1;HPM_P2
2023/11/12 00:00:12;;;;;;;0.90;0.90;;;;;;;4.16;90.97;97787.41;5017797;28;20038;-79
2023/11/12 00:02:37;;;;;;;0.80;0.80;;;;;;;4.18;90.71;97788.38;5014929;28;20455;-79
2023/11/12 00:05:03;;;;;;;0.90;0.90;;;;;;;4.26;90.71;97785.16;5016428;28;20480;-79
2023/11/12 00:07:28;;;;;;;0.80;0.80;;;;;;;4.32;91.08;97785.44;4999240;28;20052;-79
2023/11/12 00:09:54;;;;;;;0.90;0.90;;;;;;;4.43;91.09;97779.66;5016144;28;20042;-79
2023/11/12 00:12:20;;;;;;;0.80;0.80;;;;;;;4.42;90.71;97772.56;5014725;28;20038;-79
2023/11/12 00:14:46;;;;;;;0.80;0.80;;;;;;;4.41;90.54;97770.75;5005355;28;20052;-78
2023/11/12 00:17:13;;;;;;;0.80;0.80;;;;;;;4.54;90.61;97762.44;5014876;28;20034;-79
2023/11/12 00:19:40;;;;;;;0.90;0.90;;;;;;;4.53;90.51;97764.19;5016680;28;20112;-78
2023/11/12 00:22:08;;;;;;;0.80;0.80;;;;;;;4.49;90.28;97762.28;5017708;28;20054;-78
2023/11/12 00:24:34;;;;;;;0.80;0.80;;;;;;;4.34;90.84;97759.06;5016569;28;20105;-79
2023/11/12 00:26:59;;;;;;;0.80;0.80;;;;;;;4.42;90.66;97760.25;5015421;28;20484;-78
2023/11/12 00:29:25;;;;;;;0.85;0.85;;;;;;;4.42;90.93;97754.09;5016470;28;20565;-79
2023/11/12 00:31:50;;;;;;;0.80;0.80;;;;;;;4.48;90.65;97746.38;5016704;28;20041;-79
2023/11/12 00:34:16;;;;;;;0.80;0.80;;;;;;;4.42;90.61;97754.97;5029866;28;20060;-79
2023/11/12 00:36:42;;;;;;;0.88;0.88;;;;;;;4.32;90.55;97752.84;5015040;28;20033;-79
2023/11/12 00:39:11;;;;;;;0.90;0.90;;;;;;;4.35;90.51;97759.13;5021178;28;20046;-79
2023/11/12 00:41:38;;;;;;;0.80;0.80;;;;;;;4.30;90.96;97757.16;5014967;28;20807;-79
2023/11/12 00:44:04;;;;;;;;;;;;;;;4.34;90.36;97757.31;5030182;28;20048;-79
2023/11/12 00:46:30;;;;;;;0.82;0.82;;;;;;;4.37;90.82;97749.53;5015562;28;19917;-79
2023/11/12 00:48:57;;;;;;;0.80;0.80;;;;;;;4.24;90.98;97733.16;5013926;28;20042;-79
2023/11/12 00:51:23;;;;;;;0.82;0.82;;;;;;;4.20;91.74;97741.81;5014134;28;20052;-79
2023/11/12 00:53:48;;;;;;;0.82;0.82;;;;;;;4.19;91.53;97735.63;5014397;28;20041;-79
2023/11/12 00:56:14;;;;;;;0.70;0.70;;;;;;;4.13;91.70;97735.41;5032272;28;20048;-79
2023/11/12 00:58:40;;;;;;;0.80;0.80;;;;;;;4.10;91.38;97728.25;5015459;28;20057;-79
2023/11/12 01:01:06;;;;;;;0.98;0.98;;;;;;;4.23;91.54;97727.00;5022169;28;20116;-79
2023/11/12 01:03:32;;;;;;;0.90;0.90;;;;;;;4.18;91.49;97727.66;5014354;28;20053;-79
2023/11/12 01:05:59;;;;;;;;;;;;;;;4.21;91.64;97723.38;5030437;28;20037;-79
2023/11/12 01:08:25;;;;;;;0.80;0.80;;;;;;;4.11;90.78;97721.22;5029890;28;19939;-79
2023/11/12 01:10:54;;;;;;;0.90;0.90;;;;;;;4.06;90.65;97722.81;5015402;28;20787;-80
2023/11/12 01:13:19;;;;;;;0.90;0.90;;;;;;;4.05;90.90;97727.19;5015259;28;20033;-79
2023/11/12 01:15:45;;;;;;;0.90;0.90;;;;;;;4.14;91.31;97712.53;5029565;28;20107;-79
2023/11/12 01:18:11;;;;;;;0.90;0.90;;;;;;;4.20;91.05;97725.97;5016010;28;20071;-80
2023/11/12 01:20:37;;;;;;;0.90;0.90;;;;;;;4.23;90.86;97719.06;5020985;28;20037;-79
2023/11/12 01:23:02;;;;;;;0.80;0.80;;;;;;;4.22;90.68;97719.91;5014568;28;20049;-80
2023/11/12 01:25:28;;;;;;;0.80;0.80;;;;;;;4.21;90.60;97720.72;5015731;28;20029;-79
2023/11/12 01:27:54;;;;;;;0.88;0.88;;;;;;;4.20;90.39;97720.69;4995513;28;20057;-79
2023/11/12 01:30:20;;;;;;;0.90;0.90;;;;;;;4.17;91.29;97708.28;5017991;28;20550;-79
2023/11/12 01:32:46;;;;;;;0.80;0.80;;;;;;;4.17;89.68;97716.22;5015705;28;20029;-79
2023/11/12 01:35:11;;;;;;;0.80;0.80;;;;;;;4.09;89.53;97715.00;5015178;28;20057;-79
2023/11/12 01:37:37;;;;;;;0.90;0.90;;;;;;;3.99;89.90;97712.88;5015398;28;20034;-79
2023/11/12 01:40:04;;;;;;;0.90;0.90;;;;;;;3.96;89.59;97711.00;5018309;28;20048;-79
2023/11/12 01:42:30;;;;;;;0.80;0.80;;;;;;;3.90;90.29;97708.13;5016180;28;20045;-79
2023/11/12 01:44:56;;;;;;;0.90;0.90;;;;;;;3.92;90.44;97709.06;5017945;28;20052;-79
2023/11/12 01:47:21;;;;;;;0.80;0.80;;;;;;;3.92;91.31;97698.53;5016530;28;20543;-79
2023/11/12 01:49:48;;;;;;;0.90;0.90;;;;;;;3.97;91.28;97702.22;5014743;28;20037;-79
2023/11/12 01:52:16;;;;;;;0.95;0.95;;;;;;;3.97;91.08;97703.97;5014613;28;20041;-79
2023/11/12 01:54:43;;;;;;;0.90;0.90;;;;;;;3.99;91.26;97708.47;5014173;28;20096;-79
2023/11/12 01:57:09;;;;;;;0.90;0.90;;;;;;;4.02;91.65;97715.59;5030989;28;20148;-79
2023/11/12 01:59:35;;;;;;;0.80;0.80;;;;;;;4.16;91.16;97710.84;5016168;28;20041;-81
2023/11/12 02:02:02;;;;;;;0.90;0.90;;;;;;;4.18;91.04;97702.16;5029179;28;20053;-79
2023/11/12 02:04:28;;;;;;;0.80;0.80;;;;;;;4.15;91.08;97709.94;5005462;28;20052;-79
2023/11/12 02:06:54;;;;;;;0.80;0.80;;;;;;;4.30;90.57;97686.75;5027668;28;20038;-79
2023/11/12 02:09:22;;;;;;;1.00;1.00;;;;;;;4.10;91.12;97691.31;5019740;28;20121;-79
2023/11/12 02:11:54;;;;;;;0.80;0.80;;;;;;;4.11;91.56;97690.44;5016920;28;20053;-78
2023/11/12 02:14:20;;;;;;;0.80;0.80;;;;;;;4.10;89.95;97693.94;5029692;28;20068;-79
2023/11/12 02:16:50;;;;;;;0.80;0.80;;;;;;;4.06;90.14;97696.41;5029267;28;20061;-78
2023/11/12 02:19:26;;;;;;;0.82;0.82;;;;;;;4.00;90.33;97690.91;5028407;28;20117;-78
2023/11/12 02:21:52;;;;;;;0.90;0.90;;;;;;;4.02;90.61;97692.75;5012133;28;20060;-78
2023/11/12 02:24:19;;;;;;;1.00;1.00;;;;;;;3.95;90.79;97697.75;5013255;28;20046;-78
2023/11/12 02:26:47;;;;;;;0.85;0.85;;;;;;;3.91;90.86;97698.47;5012882;28;20052;-78
2023/11/12 02:29:12;;;;;;;0.90;0.90;;;;;;;3.99;91.25;97694.41;5020008;28;20041;-78
2023/11/12 02:31:38;;;;;;;0.90;0.90;;;;;;;4.03;91.01;97689.28;5014698;28;20037;-78
2023/11/12 02:34:04;;;;;;;0.90;0.90;;;;;;;4.14;90.81;97694.97;5011826;28;20714;-78
2023/11/12 02:36:31;;;;;;;0.90;0.90;;;;;;;4.14;91.08;97689.69;5027971;28;20049;-78
2023/11/12 02:38:57;;;;;;;0.82;0.82;;;;;;;4.13;91.06;97690.53;5019554;28;20116;-78
2023/11/12 02:41:23;;;;;;;0.90;0.90;;;;;;;4.13;90.74;97685.25;5014962;28;20048;-79
2023/11/12 02:43:49;;;;;;;0.90;0.90;;;;;;;4.08;90.84;97686.81;5020210;28;20132;-80
2023/11/12 02:46:16;;;;;;;0.90;0.90;;;;;;;4.19;90.64;97687.22;5017555;28;20064;-78
2023/11/12 02:49:22;;;;;;;0.80;0.80;;;;;;;4.08;90.94;97686.81;5016992;28;20050;-78
2023/11/12 02:51:49;;;;;;;0.80;0.80;;;;;;;4.07;90.96;97691.22;5003816;28;20085;-77
2023/11/12 02:54:14;;;;;;;0.80;0.80;;;;;;;4.03;91.04;97685.75;5018527;28;20088;-79
2023/11/12 02:56:40;;;;;;;0.90;0.90;;;;;;;4.01;91.49;97679.50;5019272;28;20120;-79
2023/11/12 02:59:05;;;;;;;0.90;0.90;;;;;;;4.05;90.75;97676.16;5033457;28;20090;-79
2023/11/12 03:01:31;;;;;;;0.80;0.80;;;;;;;3.98;90.93;97676.78;5032335;28;20042;-77
2023/11/12 03:03:59;;;;;;;0.90;0.90;;;;;;;3.90;91.38;97665.91;5023574;28;20041;-79
2023/11/12 03:06:25;;;;;;;0.90;0.90;;;;;;;3.99;91.89;97663.63;5019498;28;20065;-81
2023/11/12 03:08:51;;;;;;;0.80;0.80;;;;;;;4.02;91.46;97655.81;5018192;28;20064;-78
2023/11/12 03:11:17;;;;;;;0.90;0.90;;;;;;;3.85;91.29;97651.66;5018197;28;20053;-79
2023/11/12 03:13:43;;;;;;;0.90;0.90;;;;;;;3.85;91.74;97647.28;5016805;28;20072;-79
2023/11/12 03:16:08;;;;;;;0.80;0.80;;;;;;;3.86;91.63;97640.25;5017191;28;20108;-79
2023/11/12 03:18:34;;;;;;;0.80;0.80;;;;;;;3.71;91.41;97635.28;5018009;28;20148;-78
2023/11/12 03:20:59;;;;;;;0.90;0.90;;;;;;;3.67;91.20;97624.56;4999631;28;20052;-78
2023/11/12 03:23:24;;;;;;;0.80;0.80;;;;;;;3.38;91.47;97624.34;5018586;28;20570;-79
2023/11/12 03:25:50;;;;;;;0.80;0.80;;;;;;;3.17;91.93;97621.78;5022520;28;20029;-77
2023/11/12 03:28:15;;;;;;;0.80;0.80;;;;;;;2.96;91.66;97608.63;5023129;28;20076;-79
2023/11/12 03:30:41;;;;;;;0.90;0.90;;;;;;;2.79;92.13;97594.78;5016371;28;20419;-79
2023/11/12 03:33:07;;;;;;;0.95;0.95;;;;;;;2.64;92.89;97594.16;5017476;28;20120;-81
2023/11/12 03:35:33;;;;;;;0.95;0.95;;;;;;;2.33;92.59;97602.47;5022672;28;20041;-79
2023/11/12 03:37:59;;;;;;;0.90;0.90;;;;;;;2.11;92.95;97590.16;5017886;28;20042;-78
2023/11/12 03:40:24;;;;;;;0.90;0.90;;;;;;;2.17;93.11;97600.94;5016295;28;20103;-78
2023/11/12 03:42:50;;;;;;;1.00;1.00;;;;;;;2.23;93.50;97595.94;5032516;28;20379;-78
2023/11/12 03:45:16;;;;;;;1.00;1.00;;;;;;;2.09;93.80;97591.78;5021106;28;20041;-80
2023/11/12 03:47:42;;;;;;;0.90;0.90;;;;;;;1.99;93.80;97590.50;5017864;28;20061;-80
2023/11/12 03:50:08;;;;;;;0.90;0.90;;;;;;;1.97;94.19;97584.28;5019225;28;20110;-81
2023/11/12 03:52:33;;;;;;;1.00;1.00;;;;;;;1.66;93.39;97589.91;5031295;28;20042;-80
2023/11/12 03:54:59;;;;;;;0.90;0.90;;;;;;;1.61;93.66;97588.78;5017445;28;20026;-81
2023/11/12 03:57:24;;;;;;;1.00;1.00;;;;;;;1.69;94.34;97584.78;5031171;28;20076;-79
2023/11/12 03:59:51;;;;;;;0.93;0.93;;;;;;;1.49;93.94;97581.25;4999963;28;20499;-79
2023/11/12 04:02:19;;;;;;;1.10;1.10;;;;;;;1.68;93.68;97574.22;5019637;28;20041;-78
2023/11/12 04:04:45;;;;;;;0.93;0.93;;;;;;;2.08;94.17;97578.59;5016231;28;20510;-78
2023/11/12 04:07:11;;;;;;;1.00;1.00;;;;;;;2.20;93.77;97581.72;5031198;28;20273;-78
2023/11/12 04:09:37;;;;;;;1.00;1.00;;;;;;;2.05;93.38;97567.06;5017953;28;20416;-80
2023/11/12 04:12:04;;;;;;;0.90;0.90;;;;;;;2.01;93.88;97566.88;5017157;28;20030;-77
2023/11/12 04:14:30;;;;;;;1.02;1.02;;;;;;;1.86;93.84;97566.22;5016507;28;20419;-79
2023/11/12 04:16:55;;;;;;;1.00;1.00;;;;;;;1.85;94.34;97561.78;5028655;28;20041;-78
2023/11/12 04:19:21;;;;;;;1.02;1.02;;;;;;;1.88;94.49;97554.94;5017465;28;20104;-78
2023/11/12 04:21:49;;;;;;;1.00;1.00;;;;;;;1.92;93.93;97558.63;5015638;28;20030;-79
2023/11/12 04:24:15;;;;;;;1.00;1.00;;;;;;;1.94;94.11;97559.56;5018056;28;20137;-79
2023/11/12 04:26:40;;;;;;;0.90;0.90;;;;;;;1.97;93.97;97555.34;5030122;28;20129;-79
2023/11/12 04:29:06;;;;;;;1.00;1.00;;;;;;;1.88;93.98;97562.84;5017135;28;20101;-78
2023/11/12 04:31:34;;;;;;;1.00;1.00;;;;;;;1.73;94.17;97554.28;5030693;28;20038;-79
2023/11/12 04:33:59;;;;;;;1.10;1.10;;;;;;;1.43;94.10;97559.94;5033060;28;20436;-79
2023/11/12 04:36:27;;;;;;;1.10;1.10;;;;;;;1.67;94.62;97548.72;5017436;28;20103;-79
2023/11/12 04:38:53;;;;;;;1.00;1.00;;;;;;;1.45;94.58;97557.41;5021226;28;20116;-79
2023/11/12 04:41:19;;;;;;;1.00;1.00;;;;;;;1.56;94.63;97550.00;5013982;28;20434;-79
2023/11/12 04:43:44;;;;;;;1.00;1.00;;;;;;;1.57;94.29;97552.69;5015810;28;20041;-79
2023/11/12 04:46:11;;;;;;;1.00;1.00;;;;;;;1.71;93.85;97551.56;5015630;28;20497;-78
2023/11/12 04:48:38;;;;;;;1.00;1.00;;;;;;;1.70;94.01;97548.88;5016990;28;20499;-79
2023/11/12 04:51:05;;;;;;;1.00;1.00;;;;;;;1.54;93.98;97553.47;5017115;28;20037;-79
2023/11/12 04:53:31;;;;;;;1.10;1.10;;;;;;;1.43;94.29;97557.31;5017413;28;20044;-79
2023/11/12 04:55:57;;;;;;;0.98;0.98;;;;;;;1.14;94.46;97549.81;5015429;28;20046;-79
2023/11/12 04:58:23;;;;;;;1.00;1.00;;;;;;;1.13;94.56;97559.44;5014426;28;20045;-79
2023/11/12 05:00:49;;;;;;;1.00;1.00;;;;;;;0.97;94.81;97562.19;5015193;28;20029;-79
2023/11/12 05:03:15;;;;;;;1.00;1.00;;;;;;;1.15;94.58;97549.91;5016940;28;20112;-79
2023/11/12 05:05:40;;;;;;;0.93;0.93;;;;;;;1.27;94.69;97557.44;5017687;28;20116;-79
2023/11/12 05:08:06;;;;;;;1.00;1.00;;;;;;;1.27;94.60;97553.09;5017948;28;20038;-79
2023/11/12 05:10:31;;;;;;;1.00;1.00;;;;;;;1.11;94.18;97555.84;5014386;28;20498;-79
2023/11/12 05:12:57;;;;;;;1.00;1.00;;;;;;;0.88;94.23;97560.00;5017429;28;20044;-79
2023/11/12 05:15:22;;;;;;;1.00;1.00;;;;;;;0.98;94.43;97558.72;5015146;28;20052;-79
2023/11/12 05:17:48;;;;;;;1.00;1.00;;;;;;;0.91;94.68;97557.53;5014976;28;20099;-79
2023/11/12 05:20:14;;;;;;;1.00;1.00;;;;;;;0.86;94.67;97558.13;5015675;28;20200;-78
2023/11/12 05:22:39;;;;;;;1.00;1.00;;;;;;;0.83;95.08;97547.50;5017400;28;20041;-79
2023/11/12 05:25:05;;;;;;;1.08;1.08;;;;;;;0.69;94.42;97557.34;5012123;28;20669;-79
2023/11/12 05:27:31;;;;;;;1.10;1.10;;;;;;;0.70;94.54;97552.16;5011812;28;20035;-79
2023/11/12 05:29:56;;;;;;;1.10;1.10;;;;;;;0.73;94.51;97557.56;5016016;28;20053;-79
2023/11/12 05:32:21;;;;;;;1.10;1.10;;;;;;;0.67;94.69;97554.66;5016333;28;20041;-79
2023/11/12 05:34:47;;;;;;;1.00;1.00;;;;;;;0.79;94.78;97554.31;5019243;28;20088;-79
2023/11/12 05:37:12;;;;;;;1.00;1.00;;;;;;;0.76;94.58;97557.69;5016528;28;20372;-78
2023/11/12 05:39:38;;;;;;;0.93;0.93;;;;;;;0.74;94.56;97554.09;5015599;28;20048;-79
2023/11/12 05:42:03;;;;;;;1.00;1.00;;;;;;;0.71;94.93;97566.16;5014729;28;20221;-79
2023/11/12 05:44:29;;;;;;;1.00;1.00;;;;;;;0.59;95.20;97558.63;5016416;28;20549;-79
2023/11/12 05:46:55;;;;;;;1.00;1.00;;;;;;;0.60;95.18;97554.25;5015618;28;20070;-79
2023/11/12 05:49:20;;;;;;;1.00;1.00;;;;;;;0.54;95.25;97557.50;5015431;28;20046;-78
2023/11/12 05:51:46;;;;;;;1.08;1.08;;;;;;;0.58;95.50;97551.56;5013199;28;20052;-79
2023/11/12 05:54:11;;;;;;;1.10;1.10;;;;;;;0.46;95.13;97566.69;5017878;28;20037;-78
2023/11/12 05:56:36;;;;;;;1.00;1.00;;;;;;;0.45;95.16;97557.94;5015554;28;20592;-77
2023/11/12 05:59:02;;;;;;;1.10;1.10;;;;;;;0.46;95.21;97564.97;5012265;28;20777;-78
2023/11/12 06:01:28;;;;;;;0.90;0.90;;;;;;;0.40;94.81;97569.94;5012083;28;20092;-78
2023/11/12 06:03:53;;;;;;;1.00;1.00;;;;;;;0.49;95.20;97566.88;5011116;28;20034;-78
2023/11/12 06:06:19;;;;;;;1.00;1.00;;;;;;;0.47;94.89;97573.75;5011858;28;20033;-78
2023/11/12 06:08:44;;;;;;;1.10;1.10;;;;;;;0.59;95.29;97581.34;5021576;28;20248;-78
2023/11/12 06:11:11;;;;;;;1.05;1.05;;;;;;;0.65;95.12;97581.63;5015131;28;20471;-79
2023/11/12 06:13:36;;;;;;;1.10;1.10;;;;;;;0.72;95.18;97595.13;5013428;28;20041;-79
2023/11/12 06:16:02;;;;;;;0.93;0.93;;;;;;;0.62;94.96;97586.72;5020621;28;20100;-79
2023/11/12 06:18:27;;;;;;;1.10;1.10;;;;;;;0.60;94.60;97597.16;5016136;28;20052;-79
2023/11/12 06:20:53;;;;;;;1.10;1.10;;;;;;;0.54;95.17;97607.34;5015488;28;20041;-79
2023/11/12 06:23:18;;;;;;;1.10;1.10;;;;;;;0.35;95.09;97602.91;5015197;28;20045;-79
2023/11/12 06:25:44;;;;;;;1.00;1.00;;;;;;;0.41;95.15;97604.94;5018827;28;20038;-79
2023/11/12 06:28:09;;;;;;;1.10;1.10;;;;;;;0.41;95.25;97604.94;5018188;28;20041;-79
2023/11/12 06:30:35;;;;;;;1.05;1.05;;;;;;;0.45;95.27;97606.88;5019925;28;20030;-78
2023/11/12 06:33:00;;;;;;;1.08;1.08;;;;;;;0.50;95.08;97614.16;5017393;28;20034;-79
2023/11/12 06:35:25;;;;;;;1.10;1.10;;;;;;;0.44;95.01;97626.09;5032841;28;20037;-79
2023/11/12 06:37:51;;;;;;;0.93;0.93;;;;;;;0.63;95.23;97622.66;5034249;28;20037;-79
2023/11/12 06:40:16;;;;;;;1.00;1.00;;;;;;;0.51;94.96;97633.44;5032090;28;20061;-78
2023/11/12 06:42:45;;;;;;;1.02;1.02;;;;;;;0.38;94.77;97633.63;5019209;28;20044;-79
2023/11/12 06:45:10;;;;;;;1.10;1.10;;;;;;;0.31;94.91;97642.91;5016445;28;20041;-79
2023/11/12 06:47:36;;;;;;;1.00;1.00;;;;;;;0.48;95.06;97641.16;5007006;28;20046;-79
2023/11/12 06:50:03;;;;;;;1.10;1.10;;;;;;;0.46;95.29;97646.31;5017973;28;20581;-79
2023/11/12 06:52:28;;;;;;;1.10;1.10;;;;;;;0.66;94.93;97642.06;5017401;28;20045;-79
2023/11/12 06:54:54;;;;;;;1.10;1.10;;;;;;;0.79;94.82;97645.31;5021323;28;20116;-78
2023/11/12 06:57:19;;;;;;;1.10;1.10;;;;;;;0.91;94.71;97653.75;5018656;28;20091;-78
2023/11/12 06:59:45;;;;;;;1.00;1.00;;;;;;;0.83;94.44;97652.50;5018501;28;20058;-78
2023/11/12 07:02:10;;;;;;;1.10;1.10;;;;;;;0.85;94.51;97650.84;5017690;28;20132;-78
2023/11/12 07:04:35;;;;;;;1.10;1.10;;;;;;;0.92;94.50;97660.84;5019605;28;20053;-78
2023/11/12 07:07:01;;;;;;;1.00;1.00;;;;;;;1.01;94.29;97662.19;5014244;28;20318;-78
2023/11/12 07:09:26;;;;;;;1.00;1.00;;;;;;;0.96;94.11;97668.06;5020344;28;20069;-78
2023/11/12 07:11:51;;;;;;;1.00;1.00;;;;;;;1.14;93.81;97674.19;5020023;28;20073;-78
2023/11/12 07:14:17;;;;;;;1.00;1.00;;;;;;;1.11;93.55;97678.41;5017698;28;20120;-78
2023/11/12 07:16:43;;;;;;;1.08;1.08;;;;;;;1.24;93.30;97688.66;5023486;28;20044;-77
2023/11/12 07:19:09;;;;;;;1.08;1.08;;;;;;;1.33;93.12;97685.56;5019051;28;20039;-78
2023/11/12 07:21:35;;;;;;;1.00;1.00;;;;;;;1.43;92.83;97685.19;5017026;28;20042;-78
2023/11/12 07:24:00;;;;;;;1.10;1.10;;;;;;;1.43;92.58;97691.34;5018270;28;20126;-79
2023/11/12 07:26:27;;;;;;;1.00;1.00;;;;;;;1.69;92.31;97684.69;5016229;28;20037;-79
2023/11/12 07:28:53;;;;;;;1.00;1.00;;;;;;;1.75;91.82;97684.97;5020788;28;20043;-79
2023/11/12 07:31:21;;;;;;;1.10;1.10;;;;;;;1.78;92.10;97693.00;5017558;28;20116;-77
2023/11/12 07:33:47;;;;;;;1.00;1.00;;;;;;;2.08;91.78;97696.97;5022527;28;20068;-77
2023/11/12 07:36:13;;;;;;;1.05;1.05;;;;;;;2.21;91.56;97697.59;5022356;28;20119;-78
2023/11/12 07:38:39;;;;;;;1.00;1.00;;;;;;;2.42;90.91;97702.00;5016751;28;20042;-79
2023/11/12 07:41:07;;;;;;;1.10;1.10;;;;;;;2.58;90.56;97701.81;5015665;28;20052;-79
2023/11/12 07:43:33;;;;;;;;;;;;;;;2.69;90.67;97700.56;5019149;28;20045;-79
2023/11/12 07:45:58;;;;;;;1.00;1.00;;;;;;;2.83;90.35;97703.81;5018351;28;20287;-79
2023/11/12 07:48:24;;;;;;;1.00;1.00;;;;;;;2.96;89.80;97702.56;5017987;28;20524;-79
2023/11/12 07:50:49;;;;;;;1.00;1.00;;;;;;;2.85;89.28;97707.38;5018868;28;20068;-78
2023/11/12 07:53:14;;;;;;;1.00;1.00;;;;;;;3.09;89.78;97704.88;5017397;28;20044;-78
2023/11/12 07:55:41;;;;;;;1.02;1.02;;;;;;;3.20;88.94;97703.56;5016350;28;20042;-78
2023/11/12 07:58:07;;;;;;;1.00;1.00;;;;;;;2.96;88.58;97707.84;5017334;28;20044;-79
2023/11/12 08:00:32;;;;;;;0.90;0.90;;;;;;;3.03;89.43;97702.91;5018653;28;20050;-79
2023/11/12 08:02:57;;;;;;;0.90;0.90;;;;;;;3.22;88.71;97707.19;5016327;28;20041;-79
2023/11/12 08:05:23;;;;;;;0.90;0.90;;;;;;;3.44;88.56;97700.13;5014456;28;20038;-80
2023/11/12 08:07:50;;;;;;;0.90;0.90;;;;;;;3.40;88.65;97703.47;5014617;28;20056;-79
2023/11/12 08:10:18;;;;;;;0.90;0.90;;;;;;;3.33;88.38;97692.69;5015026;28;20063;-79
2023/11/12 08:12:44;;;;;;;0.90;0.90;;;;;;;3.25;88.54;97686.22;5014626;28;21064;-79
2023/11/12 08:15:12;;;;;;;0.98;0.98;;;;;;;3.40;88.77;97690.31;5014443;28;20673;-79
2023/11/12 08:17:39;;;;;;;1.00;1.00;;;;;;;3.60;88.67;97679.72;5019036;28;20041;-79
2023/11/12 08:20:05;;;;;;;0.90;0.90;;;;;;;3.59;88.50;97675.31;5015639;28;20029;-78
2023/11/12 08:22:31;;;;;;;0.98;0.98;;;;;;;3.79;88.22;97680.44;5015127;28;20048;-78
2023/11/12 08:24:57;;;;;;;1.00;1.00;;;;;;;3.85;87.96;97684.22;5015519;28;20119;-78
2023/11/12 08:27:22;;;;;;;0.90;0.90;;;;;;;3.71;87.57;97689.78;5018459;28;20439;-78
2023/11/12 08:29:49;;;;;;;0.90;0.90;;;;;;;3.77;87.80;97682.09;5018962;28;20549;-79
2023/11/12 08:32:14;;;;;;;0.90;0.90;;;;;;;3.69;87.70;97687.09;5021249;28;20053;-79
2023/11/12 08:34:40;;;;;;;0.90;0.90;;;;;;;3.89;88.33;97684.34;5016433;28;20045;-80
2023/11/12 08:37:06;;;;;;;1.00;1.00;;;;;;;3.88;87.78;97683.44;5016399;28;20037;-78
2023/11/12 08:39:32;;;;;;;0.80;0.80;;;;;;;4.06;87.83;97683.22;5014623;28;20041;-78
2023/11/12 08:41:59;;;;;;;0.90;0.90;;;;;;;4.61;86.32;97683.50;5014188;28;20033;-78
2023/11/12 08:44:24;;;;;;;0.90;0.90;;;;;;;4.80;87.00;97679.75;5019116;28;20105;-78
2023/11/12 08:46:50;;;;;;;0.80;0.80;;;;;;;4.82;86.15;97690.38;5015012;28;20109;-78
2023/11/12 08:49:15;;;;;;;0.90;0.90;;;;;;;4.91;86.10;97692.44;5016307;28;20088;-79
2023/11/12 08:51:41;;;;;;;0.80;0.80;;;;;;;4.82;85.91;97691.25;5014553;28;20044;-79
2023/11/12 08:54:09;;;;;;;0.90;0.90;;;;;;;4.81;85.66;97693.84;5017437;28;20051;-77
2023/11/12 08:56:37;;;;;;;0.90;0.90;;;;;;;4.88;86.58;97687.91;5016262;28;21480;-78
2023/11/12 08:59:03;;;;;;;0.90;0.90;;;;;;;5.06;84.63;97687.66;5019194;28;20041;-78
2023/11/12 09:01:32;;;;;;;0.90;0.90;;;;;;;5.53;84.62;97699.81;5013307;28;20084;-78
2023/11/12 09:03:58;;;;;;;0.90;0.90;;;;;;;5.79;83.04;97707.66;5016438;28;20033;-78
2023/11/12 09:06:23;;;;;;;0.90;0.90;;;;;;;6.81;82.17;97699.22;5014549;28;20072;-78
2023/11/12 09:08:48;;;;;;;0.80;0.80;;;;;;;7.34;77.73;97697.06;5016743;28;20046;-78
2023/11/12 09:11:14;;;;;;;0.90;0.90;;;;;;;8.10;77.17;97697.97;5015748;28;20037;-78
2023/11/12 09:13:40;;;;;;;0.80;0.80;;;;;;;8.52;77.86;97692.66;5014238;28;20197;-78
2023/11/12 09:16:10;;;;;;;0.70;0.70;;;;;;;9.37;73.59;97690.72;5016147;28;20129;-78
2023/11/12 09:18:36;;;;;;;0.70;0.70;;;;;;;8.98;72.66;97693.59;5013928;28;20045;-78
2023/11/12 09:21:02;;;;;;;0.70;0.70;;;;;;;9.43;69.11;97688.16;5017310;28;20037;-77
2023/11/12 09:23:28;;;;;;;0.70;0.70;;;;;;;8.26;64.68;97689.44;5017934;28;20659;-77
2023/11/12 09:25:53;;;;;;;0.70;0.70;;;;;;;8.85;63.53;97689.78;5011166;28;20057;-78
2023/11/12 09:28:19;;;;;;;0.70;0.70;;;;;;;8.75;64.63;97698.47;5013540;28;20045;-77
2023/11/12 09:30:45;;;;;;;0.70;0.70;;;;;;;8.53;62.29;97696.22;5030886;28;20030;-77
2023/11/12 09:33:12;;;;;;;0.60;0.60;;;;;;;10.05;58.18;97686.47;5014086;28;20113;-77
2023/11/12 09:35:39;;;;;;;0.60;0.60;;;;;;;9.77;58.91;97686.97;5014408;28;20780;-77
2023/11/12 09:38:04;;;;;;;;;;;;;;;10.55;58.54;97686.28;5013958;28;20373;-77
2023/11/12 09:40:31;;;;;;;0.60;0.60;;;;;;;12.48;52.96;97667.47;5017018;28;19927;-77
2023/11/12 09:42:57;;;;;;;0.60;0.60;;;;;;;10.82;55.59;97675.91;5014971;28;20049;-77
2023/11/12 09:45:24;;;;;;;0.57;0.57;;;;;;;11.78;55.21;97670.56;5015033;28;20052;-77
2023/11/12 09:47:53;;;;;;;0.47;0.47;;;;;;;11.63;53.69;97673.13;5014045;28;20042;-77
2023/11/12 09:50:23;;;;;;;0.40;0.40;;;;;;;12.10;52.98;97672.59;5010763;28;20048;-77
2023/11/12 09:52:51;;;;;;;0.40;0.40;;;;;;;11.41;53.76;97670.31;5014094;28;20458;-77
2023/11/12 09:55:19;;;;;;;0.40;0.40;;;;;;;10.77;56.54;97670.53;5010033;28;20046;-78
2023/11/12 09:57:46;;;;;;;0.40;0.40;;;;;;;11.45;54.46;97671.19;5014042;28;20091;-78
2023/11/12 10:00:16;;;;;;;0.50;0.50;;;;;;;10.40;56.20;97681.66;5020912;28;20041;-78
2023/11/12 10:02:46;;;;;;;0.50;0.50;;;;;;;9.67;56.64;97686.78;5015963;28;20124;-78
2023/11/12 10:05:13;;;;;;;0.50;0.50;;;;;;;9.91;55.60;97686.25;5016969;28;20059;-78
2023/11/12 10:07:39;;;;;;;0.50;0.50;;;;;;;11.00;54.75;97681.47;5018158;28;20533;-79
2023/11/12 10:10:27;;;;;;;0.50;0.50;;;;;;;10.23;54.87;97684.94;5016663;28;20067;-78
2023/11/12 10:12:53;;;;;;;0.50;0.50;;;;;;;10.33;55.33;97679.78;5019045;28;20855;-77
2023/11/12 10:15:25;;;;;;;0.60;0.60;;;;;;;10.48;55.39;97677.28;5016538;28;20042;-78
2023/11/12 10:17:54;;;;;;;0.60;0.60;;;;;;;10.69;55.22;97688.25;5018534;28;20582;-77
2023/11/12 10:20:23;;;;;;;0.60;0.60;;;;;;;9.75;58.61;97683.38;5028873;28;20140;-79
2023/11/12 10:22:50;;;;;;;0.50;0.50;;;;;;;10.32;55.07;97686.88;5009919;28;20784;-78
2023/11/12 10:25:39;;;;;;;0.60;0.60;;;;;;;8.73;59.09;97692.22;5017993;28;20038;-77
2023/11/12 10:28:07;;;;;;;0.60;0.60;;;;;;;8.70;60.74;97682.41;5015424;28;20038;-77
2023/11/12 10:30:33;;;;;;;0.60;0.60;;;;;;;8.28;60.93;97686.81;5012038;28;20045;-78
2023/11/12 10:33:19;;;;;;;0.60;0.60;;;;;;;8.01;62.42;97697.75;5024296;28;20042;-78
2023/11/12 10:35:46;;;;;;;0.63;0.63;;;;;;;8.00;64.60;97691.56;5015490;28;20330;-78
2023/11/12 10:38:15;;;;;;;0.70;0.70;;;;;;;7.70;63.65;97679.34;5007818;28;20096;-77
2023/11/12 10:41:10;;;;;;;0.60;0.60;;;;;;;7.80;64.39;97687.53;5023535;28;20770;-79
2023/11/12 10:43:35;;;;;;;0.70;0.70;;;;;;;8.08;63.56;97679.31;4990875;28;20187;-79
2023/11/12 10:46:06;;;;;;;0.70;0.70;;;;;;;8.11;63.92;97687.38;5006772;28;20049;-78
2023/11/12 10:48:42;;;;;;;0.70;0.70;;;;;;;8.30;63.68;97682.44;5008080;28;20045;-80
2023/11/12 10:51:10;;;;;;;0.70;0.70;;;;;;;7.50;65.37;97693.91;5001912;28;20475;-79
2023/11/12 10:53:37;;;;;;;0.70;0.70;;;;;;;7.48;64.14;97694.75;5009778;28;20042;-80
2023/11/12 10:56:05;;;;;;;0.90;0.90;;;;;;;7.62;64.13;97694.22;5019318;28;20038;-80
2023/11/12 10:58:31;;;;;;;0.70;0.70;;;;;;;8.10;63.42;97692.66;5011139;28;20099;-80
2023/11/12 11:01:01;;;;;;;0.80;0.80;;;;;;;8.22;62.79;97691.13;5022210;28;20045;-80
2023/11/12 11:03:29;;;;;;;0.80;0.80;;;;;;;8.07;64.07;97685.50;5016592;28;20073;-80
2023/11/12 11:05:56;;;;;;;0.70;0.70;;;;;;;8.22;62.54;97683.16;5008333;28;20801;-79
2023/11/12 11:08:24;;;;;;;0.73;0.73;;;;;;;8.20;62.13;97682.25;5019778;28;20073;-79
2023/11/12 11:10:50;;;;;;;0.80;0.80;;;;;;;8.74;61.56;97680.72;5010410;28;20033;-80
2023/11/12 11:13:16;;;;;;;0.77;0.77;;;;;;;8.55;61.52;97679.47;5007521;28;20041;-80
2023/11/12 11:15:54;;;;;;;0.70;0.70;;;;;;;8.92;60.59;97673.09;5019021;28;20048;-79
2023/11/12 11:18:31;;;;;;;0.70;0.70;;;;;;;8.96;59.82;97677.59;5009220;28;20042;-79
2023/11/12 11:21:03;;;;;;;0.80;0.80;;;;;;;8.79;60.96;97675.50;5007851;28;20033;-79
2023/11/12 11:23:41;;;;;;;0.70;0.70;;;;;;;8.78;60.60;97679.91;5013650;28;20049;-79
2023/11/12 11:26:35;;;;;;;0.70;0.70;;;;;;;8.89;60.36;97675.69;5024186;28;20041;-79
2023/11/12 11:29:04;;;;;;;0.70;0.70;;;;;;;8.15;62.35;97675.06;4991815;28;20496;-79
2023/11/12 11:31:41;;;;;;;0.80;0.80;;;;;;;8.12;62.86;97682.94;5014998;28;20144;-79
2023/11/12 11:34:08;;;;;;;0.80;0.80;;;;;;;8.12;63.26;97677.63;5009886;28;20033;-80
2023/11/12 11:36:34;;;;;;;0.70;0.70;;;;;;;8.42;62.36;97680.97;5015891;28;20100;-78
2023/11/12 11:39:07;;;;;;;0.80;0.80;;;;;;;8.29;62.74;97675.31;5008832;28;20063;-79